Time;durP1;ratioP1;P1;durP2;ratioP2;P2;SDS_P1;SDS_P2;PMS_P1;PMS_P2;Temp;Humidity;BMP_temperature;BMP_pressure;BME280_temperature;BME280_humidity;BME280_pressure;Samples;Min_cycle;Max_cycle;Signal;HPM_P1;HPM_P2
2022/05/10 00:00:29;;;;;;;6.15;4.40;;;;;;;;;;5047128;28;20116;-70
2022/05/10 00:02:56;;;;;;;5.72;3.00;;;;;;;;;;5049831;28;20021;-70
2022/05/10 00:05:24;;;;;;;5.32;3.58;;;;;;;;;;5044695;28;20016;-70
2022/05/10 00:07:49;;;;;;;3.75;2.53;;;;;;;;;;5049023;28;20067;-70
2022/05/10 00:10:15;;;;;;;5.22;2.85;;;;;;;;;;5048267;28;20505;-70
2022/05/10 00:12:40;;;;;;;8.23;4.17;;;;;;;;;;5047542;28;20013;-70
2022/05/10 00:15:06;;;;;;;7.47;4.25;;;;;;;;;;5048604;28;20270;-70
2022/05/10 00:17:36;;;;;;;8.63;4.22;;;;;;;;;;5049382;28;20024;-70
2022/05/10 00:20:01;;;;;;;;;;;;;;;;;;5048449;28;20023;-70
2022/05/10 00:22:27;;;;;;;9.87;3.93;;;;;;;;;;5048749;28;20179;-70
2022/05/10 00:24:52;;;;;;;5.57;3.92;;;;;;;;;;5048649;28;20414;-69
2022/05/10 00:27:17;;;;;;;15.07;4.75;;;;;;;;;;5049256;28;20035;-70
2022/05/10 00:29:43;;;;;;;6.88;4.10;;;;;;;;;;5049150;28;20017;-70
2022/05/10 00:32:09;;;;;;;5.80;4.07;;;;;;;;;;5048261;28;20039;-70
2022/05/10 00:34:35;;;;;;;5.80;3.70;;;;;;;;;;5048038;28;20025;-69
2022/05/10 00:37:00;;;;;;;8.52;4.45;;;;;;;;;;5047839;28;20482;-70
2022/05/10 00:39:25;;;;;;;7.75;4.13;;;;;;;;;;5047950;28;20111;-70
2022/05/10 00:42:06;;;;;;;5.47;3.73;;;;;;;;;;5046759;28;20048;-69
2022/05/10 00:44:31;;;;;;;6.93;4.40;;;;;;;;;;5049477;28;20271;-70
2022/05/10 00:46:56;;;;;;;9.73;4.37;;;;;;;;;;5051554;28;20103;-69
2022/05/10 00:49:40;;;;;;;10.65;4.05;;;;;;;;;;5054226;28;20255;-70
2022/05/10 00:52:11;;;;;;;6.60;3.92;;;;;;;;;;5049449;28;20025;-70
2022/05/10 00:54:46;;;;;;;6.80;4.60;;;;;;;;;;5048219;28;20561;-70
2022/05/10 00:57:11;;;;;;;6.45;4.50;;;;;;;;;;5049775;28;20021;-70
2022/05/10 00:59:36;;;;;;;8.80;4.15;;;;;;;;;;5052595;28;20040;-70
2022/05/10 01:02:06;;;;;;;13.88;5.43;;;;;;;;;;5051718;28;20059;-70
2022/05/10 01:04:43;;;;;;;6.60;4.72;;;;;;;;;;5046321;28;20158;-70
2022/05/10 01:07:13;;;;;;;11.50;4.85;;;;;;;;;;5050573;28;20021;-70
2022/05/10 01:09:59;;;;;;;8.10;4.68;;;;;;;;;;5052384;28;20021;-70
2022/05/10 01:12:36;;;;;;;5.53;4.50;;;;;;;;;;5046053;28;20566;-70
2022/05/10 01:15:04;;;;;;;5.90;4.57;;;;;;;;;;5052160;28;20025;-70
2022/05/10 01:17:29;;;;;;;10.07;5.22;;;;;;;;;;5049358;28;20496;-70
2022/05/10 01:19:54;;;;;;;20.23;4.68;;;;;;;;;;5052638;28;20028;-70
2022/05/10 01:22:38;;;;;;;11.07;5.68;;;;;;;;;;5051576;28;20160;-70
2022/05/10 01:25:14;;;;;;;6.30;4.75;;;;;;;;;;5052449;28;20017;-70
2022/05/10 01:27:39;;;;;;;13.57;5.82;;;;;;;;;;5048567;28;20490;-70
2022/05/10 01:30:11;;;;;;;12.63;6.10;;;;;;;;;;5050448;28;20021;-70
2022/05/10 01:35:30;;;;;;;6.68;4.93;;;;;;;;;;5049156;28;20063;-70
2022/05/10 01:37:58;;;;;;;11.57;5.60;;;;;;;;;;5049590;28;20020;-70
2022/05/10 01:40:31;;;;;;;9.98;5.38;;;;;;;;;;5052164;28;20039;-70
2022/05/10 01:43:04;;;;;;;12.63;5.53;;;;;;;;;;5049721;28;20112;-70
2022/05/10 01:45:36;;;;;;;10.80;5.40;;;;;;;;;;5051805;28;20017;-70
2022/05/10 01:48:03;;;;;;;8.93;5.50;;;;;;;;;;5051009;28;20351;-70
2022/05/10 01:50:42;;;;;;;8.13;5.93;;;;;;;;;;5052169;28;20031;-70
2022/05/10 01:53:13;;;;;;;11.20;6.35;;;;;;;;;;5050403;28;20028;-70
2022/05/10 01:55:46;;;;;;;6.82;5.05;;;;;;;;;;5051552;28;20028;-70
2022/05/10 01:58:11;;;;;;;15.65;4.97;;;;;;;;;;5050263;28;20055;-70
2022/05/10 02:00:38;;;;;;;8.07;5.10;;;;;;;;;;5046941;28;20060;-70
2022/05/10 02:03:08;;;;;;;11.13;6.55;;;;;;;;;;5048908;28;20326;-70
2022/05/10 02:05:45;;;;;;;10.55;5.28;;;;;;;;;;5053236;28;20021;-70
2022/05/10 02:08:14;;;;;;;7.28;5.18;;;;;;;;;;5047890;28;20040;-70
2022/05/10 02:10:42;;;;;;;11.52;6.40;;;;;;;;;;5048593;28;20021;-69
2022/05/10 02:13:11;;;;;;;11.82;6.03;;;;;;;;;;5050180;28;20346;-70
2022/05/10 02:15:44;;;;;;;12.10;5.45;;;;;;;;;;5052669;28;20025;-70
2022/05/10 02:18:09;;;;;;;8.70;5.65;;;;;;;;;;5047255;28;20490;-70
2022/05/10 02:20:40;;;;;;;8.70;5.43;;;;;;;;;;5051311;28;20028;-70
2022/05/10 02:23:21;;;;;;;9.35;4.97;;;;;;;;;;5049758;28;20270;-69
2022/05/10 02:25:49;;;;;;;7.05;4.78;;;;;;;;;;5052169;28;20507;-69
2022/05/10 02:28:22;;;;;;;10.52;5.10;;;;;;;;;;5047686;28;20029;-69
2022/05/10 02:30:47;;;;;;;11.63;5.53;;;;;;;;;;5051500;28;20035;-69
2022/05/10 02:33:14;;;;;;;17.45;5.38;;;;;;;;;;5048028;28;20433;-69
2022/05/10 02:35:45;;;;;;;7.07;4.88;;;;;;;;;;5052167;28;20029;-69
2022/05/10 02:38:12;;;;;;;10.40;5.50;;;;;;;;;;5049280;28;20024;-69
2022/05/10 02:40:41;;;;;;;7.90;5.45;;;;;;;;;;5051043;28;20033;-69
2022/05/10 02:43:09;;;;;;;7.57;5.47;;;;;;;;;;5051053;28;20024;-69
2022/05/10 02:45:35;;;;;;;12.63;6.35;;;;;;;;;;5049160;28;20351;-69
2022/05/10 02:48:00;;;;;;;7.38;5.38;;;;;;;;;;5049858;28;20021;-69
2022/05/10 02:50:27;;;;;;;9.47;6.13;;;;;;;;;;5050868;28;20074;-69
2022/05/10 02:52:53;;;;;;;9.55;5.95;;;;;;;;;;5050964;28;20354;-69
2022/05/10 02:55:22;;;;;;;7.38;5.25;;;;;;;;;;5051275;28;20104;-70
2022/05/10 02:57:48;;;;;;;9.35;5.70;;;;;;;;;;5048077;28;20032;-70
2022/05/10 03:00:13;;;;;;;10.15;6.13;;;;;;;;;;5049711;28;20021;-70
2022/05/10 03:02:40;;;;;;;8.75;5.55;;;;;;;;;;5050675;28;20024;-70
2022/05/10 03:05:07;;;;;;;9.52;6.65;;;;;;;;;;5050310;28;20064;-70
2022/05/10 03:07:33;;;;;;;9.57;6.00;;;;;;;;;;5049285;28;20017;-68
2022/05/10 03:09:58;;;;;;;11.60;6.20;;;;;;;;;;5050167;28;20389;-69
2022/05/10 03:12:23;;;;;;;8.50;5.97;;;;;;;;;;5048031;28;20320;-69
2022/05/10 03:14:49;;;;;;;10.13;5.87;;;;;;;;;;5049695;28;20271;-70
2022/05/10 03:17:14;;;;;;;8.68;5.82;;;;;;;;;;5048101;28;20624;-69
2022/05/10 03:19:40;;;;;;;13.13;5.70;;;;;;;;;;5050199;28;20029;-69
2022/05/10 03:22:06;;;;;;;10.35;5.72;;;;;;;;;;5050605;28;20021;-70
2022/05/10 03:24:31;;;;;;;10.30;5.60;;;;;;;;;;5048572;28;20025;-70
2022/05/10 03:26:58;;;;;;;7.40;5.40;;;;;;;;;;5048971;28;20409;-70
2022/05/10 03:29:25;;;;;;;10.57;5.35;;;;;;;;;;5049143;28;20108;-70
2022/05/10 03:31:50;;;;;;;8.25;5.43;;;;;;;;;;5049680;28;20454;-70
2022/05/10 03:37:00;;;;;;;10.90;5.53;;;;;;;;;;5047485;28;20075;-70
2022/05/10 03:39:25;;;;;;;9.13;6.00;;;;;;;;;;5049770;28;20020;-70
2022/05/10 03:41:50;;;;;;;9.27;6.20;;;;;;;;;;5044374;28;20098;-70
2022/05/10 03:44:16;;;;;;;7.43;5.75;;;;;;;;;;5049463;28;20470;-70
2022/05/10 03:46:43;;;;;;;9.45;6.22;;;;;;;;;;5048226;28;20086;-70
2022/05/10 03:49:08;;;;;;;12.48;5.95;;;;;;;;;;5049575;28;20043;-70
2022/05/10 03:51:33;;;;;;;6.97;5.43;;;;;;;;;;5048697;28;20029;-70
2022/05/10 03:53:59;;;;;;;9.13;5.80;;;;;;;;;;5046448;28;20638;-70
2022/05/10 03:56:24;;;;;;;13.95;5.65;;;;;;;;;;5048843;28;20271;-70
2022/05/10 03:58:50;;;;;;;7.30;5.73;;;;;;;;;;5049851;28;20425;-70
2022/05/10 04:01:17;;;;;;;9.48;5.97;;;;;;;;;;5047705;28;20298;-70
2022/05/10 04:03:43;;;;;;;9.93;5.22;;;;;;;;;;5048368;28;20017;-70
2022/05/10 04:06:08;;;;;;;8.10;5.90;;;;;;;;;;5049073;28;20028;-68
2022/05/10 04:08:33;;;;;;;11.95;6.03;;;;;;;;;;5048121;28;20801;-69
2022/05/10 04:11:02;;;;;;;10.13;5.65;;;;;;;;;;5048513;28;20104;-69
2022/05/10 04:13:27;;;;;;;9.23;6.20;;;;;;;;;;5048505;28;20032;-69
2022/05/10 04:15:52;;;;;;;8.00;5.87;;;;;;;;;;5048425;28;20025;-70
2022/05/10 04:18:18;;;;;;;7.57;5.30;;;;;;;;;;5049777;28;20422;-70
2022/05/10 04:20:44;;;;;;;13.05;5.80;;;;;;;;;;5047533;28;20290;-70
2022/05/10 04:23:09;;;;;;;9.57;6.10;;;;;;;;;;5048331;28;20039;-70
2022/05/10 04:25:34;;;;;;;12.77;6.03;;;;;;;;;;5049544;28;20271;-70
2022/05/10 04:27:59;;;;;;;15.03;6.33;;;;;;;;;;5047874;28;20784;-70
2022/05/10 04:30:24;;;;;;;9.05;5.70;;;;;;;;;;5049516;28;20279;-70
2022/05/10 04:32:50;;;;;;;9.80;6.38;;;;;;;;;;5049266;28;20028;-70
2022/05/10 04:35:15;;;;;;;7.68;5.38;;;;;;;;;;5048672;28;20086;-70
2022/05/10 04:37:40;;;;;;;9.48;6.43;;;;;;;;;;5049217;28;20090;-70
2022/05/10 04:42:52;;;;;;;15.80;5.88;;;;;;;;;;5048161;28;20393;-70
2022/05/10 04:45:17;;;;;;;11.27;6.13;;;;;;;;;;5047680;28;20485;-70
2022/05/10 04:47:42;;;;;;;9.55;6.32;;;;;;;;;;5049268;28;20027;-70
2022/05/10 04:50:09;;;;;;;10.70;5.83;;;;;;;;;;5044708;28;20032;-69
2022/05/10 04:52:34;;;;;;;12.00;6.40;;;;;;;;;;5046916;28;20271;-70
2022/05/10 04:54:59;;;;;;;10.80;5.75;;;;;;;;;;5043830;28;20075;-70
2022/05/10 04:57:25;;;;;;;14.00;6.60;;;;;;;;;;5043922;28;20021;-70
2022/05/10 04:59:50;;;;;;;12.97;6.13;;;;;;;;;;5046953;28;20029;-69
2022/05/10 05:02:15;;;;;;;8.60;5.93;;;;;;;;;;5046944;28;20337;-70
2022/05/10 05:04:40;;;;;;;11.20;6.17;;;;;;;;;;5044092;28;20303;-69
2022/05/10 05:07:05;;;;;;;9.17;6.17;;;;;;;;;;5044974;28;20333;-70
2022/05/10 05:09:31;;;;;;;13.65;6.82;;;;;;;;;;5042047;28;20278;-70
2022/05/10 05:11:56;;;;;;;11.30;6.18;;;;;;;;;;5041393;28;20029;-70
2022/05/10 05:14:21;;;;;;;9.85;5.68;;;;;;;;;;5044638;28;20032;-70
2022/05/10 05:16:47;;;;;;;12.98;5.82;;;;;;;;;;5046336;28;20417;-71
2022/05/10 05:19:12;;;;;;;9.27;6.47;;;;;;;;;;5047085;28;20203;-70
2022/05/10 05:21:38;;;;;;;13.57;6.40;;;;;;;;;;5045297;28;20703;-70
2022/05/10 05:24:03;;;;;;;12.00;6.10;;;;;;;;;;5042815;28;20625;-70
2022/05/10 05:26:29;;;;;;;13.18;6.40;;;;;;;;;;5045428;28;20051;-70
2022/05/10 05:28:54;;;;;;;11.88;6.35;;;;;;;;;;5046346;28;20096;-70
2022/05/10 05:31:20;;;;;;;13.63;5.90;;;;;;;;;;5040993;28;20072;-70
2022/05/10 05:33:45;;;;;;;7.97;5.72;;;;;;;;;;5049671;28;20037;-70
2022/05/10 05:36:10;;;;;;;9.82;6.20;;;;;;;;;;5048460;28;20532;-70
2022/05/10 05:38:36;;;;;;;11.53;6.00;;;;;;;;;;5050193;28;20614;-70
2022/05/10 05:41:02;;;;;;;13.27;5.63;;;;;;;;;;5050137;28;20284;-70
2022/05/10 05:43:27;;;;;;;10.05;5.65;;;;;;;;;;5047465;28;20094;-70
2022/05/10 05:45:52;;;;;;;9.65;6.10;;;;;;;;;;5049799;28;20036;-70
2022/05/10 05:48:18;;;;;;;17.15;5.35;;;;;;;;;;5048997;28;20032;-70
2022/05/10 05:50:43;;;;;;;10.80;5.68;;;;;;;;;;5049911;28;20063;-70
2022/05/10 05:53:08;;;;;;;8.77;5.50;;;;;;;;;;5046137;28;20146;-70
2022/05/10 05:55:33;;;;;;;9.63;5.57;;;;;;;;;;5048925;28;20029;-70
2022/05/10 05:57:59;;;;;;;8.25;5.60;;;;;;;;;;5050791;28;20021;-70
2022/05/10 06:00:25;;;;;;;9.23;5.70;;;;;;;;;;5054073;28;20103;-70
2022/05/10 06:02:51;;;;;;;10.15;5.05;;;;;;;;;;5063786;28;20455;-70
2022/05/10 06:05:16;;;;;;;7.32;5.03;;;;;;;;;;5052172;28;20036;-70
2022/05/10 06:07:41;;;;;;;8.80;5.85;;;;;;;;;;5048739;28;20104;-70
2022/05/10 06:10:07;;;;;;;9.65;5.05;;;;;;;;;;5048140;28;20032;-70
2022/05/10 06:12:32;;;;;;;7.45;4.57;;;;;;;;;;5050469;28;20020;-70
2022/05/10 06:14:58;;;;;;;11.00;3.70;;;;;;;;;;5049953;28;20029;-70
2022/05/10 06:17:23;;;;;;;8.30;4.50;;;;;;;;;;5049264;28;20275;-70
2022/05/10 06:19:49;;;;;;;7.95;4.65;;;;;;;;;;5050421;28;20045;-69
2022/05/10 06:22:14;;;;;;;8.98;4.13;;;;;;;;;;5049444;28;20035;-69
2022/05/10 06:24:40;;;;;;;8.80;5.07;;;;;;;;;;5049787;28;20021;-68
2022/05/10 06:27:06;;;;;;;8.25;4.60;;;;;;;;;;5050022;28;20945;-69
2022/05/10 06:29:31;;;;;;;6.32;3.58;;;;;;;;;;5047286;28;20027;-68
2022/05/10 06:31:57;;;;;;;10.23;4.05;;;;;;;;;;5050617;28;20025;-71
2022/05/10 06:34:22;;;;;;;9.00;5.20;;;;;;;;;;5053455;28;20032;-68
2022/05/10 06:36:47;;;;;;;9.73;4.90;;;;;;;;;;5050180;28;20090;-68
2022/05/10 06:39:12;;;;;;;7.93;4.70;;;;;;;;;;5047551;28;20760;-69
2022/05/10 06:41:38;;;;;;;10.80;4.57;;;;;;;;;;5046861;28;20067;-69
2022/05/10 06:44:03;;;;;;;4.88;2.78;;;;;;;;;;5047102;28;20485;-71
2022/05/10 06:46:32;;;;;;;8.10;4.90;;;;;;;;;;5049595;28;20450;-70
2022/05/10 06:48:57;;;;;;;10.68;5.50;;;;;;;;;;5048893;28;20021;-70
2022/05/10 06:51:23;;;;;;;6.60;4.47;;;;;;;;;;5051060;28;20112;-69
2022/05/10 06:53:48;;;;;;;12.07;4.90;;;;;;;;;;5046708;28;20017;-69
2022/05/10 06:56:13;;;;;;;9.95;4.57;;;;;;;;;;5048107;28;20082;-70
2022/05/10 06:58:39;;;;;;;7.67;4.30;;;;;;;;;;5047710;28;20048;-69
2022/05/10 07:01:11;;;;;;;7.63;4.40;;;;;;;;;;5050586;28;20740;-69
2022/05/10 07:03:37;;;;;;;11.15;3.67;;;;;;;;;;5049745;28;20017;-69
2022/05/10 07:06:03;;;;;;;8.27;4.40;;;;;;;;;;5047907;28;20028;-70
2022/05/10 07:08:28;;;;;;;8.93;4.13;;;;;;;;;;5044901;28;20099;-70
2022/05/10 07:10:54;;;;;;;7.25;4.70;;;;;;;;;;5045399;28;20105;-69
2022/05/10 07:13:23;;;;;;;11.57;5.15;;;;;;;;;;5047503;28;20033;-68
2022/05/10 07:15:49;;;;;;;8.52;4.70;;;;;;;;;;5049259;28;20025;-69
2022/05/10 07:18:15;;;;;;;7.10;4.43;;;;;;;;;;5050339;28;20414;-68
2022/05/10 07:20:41;;;;;;;7.70;4.40;;;;;;;;;;5044818;28;20025;-70
2022/05/10 07:23:06;;;;;;;6.25;4.43;;;;;;;;;;5049355;28;20060;-69
2022/05/10 07:25:31;;;;;;;7.57;4.28;;;;;;;;;;5045983;28;20107;-71
2022/05/10 07:27:57;;;;;;;6.75;4.32;;;;;;;;;;5049733;28;20389;-70
2022/05/10 07:30:23;;;;;;;8.32;4.47;;;;;;;;;;5046307;28;20035;-71
2022/05/10 07:32:49;;;;;;;7.18;4.28;;;;;;;;;;5048231;28;20032;-71
2022/05/10 07:35:14;;;;;;;5.80;4.10;;;;;;;;;;5047923;28;20029;-70
2022/05/10 07:37:40;;;;;;;12.73;4.57;;;;;;;;;;5047778;28;20086;-70
2022/05/10 07:40:06;;;;;;;6.30;4.03;;;;;;;;;;5047908;28;20075;-70
2022/05/10 07:42:31;;;;;;;6.70;4.13;;;;;;;;;;5045748;28;20362;-70
2022/05/10 07:44:56;;;;;;;8.27;3.50;;;;;;;;;;5047167;28;20101;-70
2022/05/10 07:47:21;;;;;;;11.57;3.93;;;;;;;;;;5050197;28;20613;-70
2022/05/10 07:49:46;;;;;;;8.27;4.43;;;;;;;;;;5047735;28;20289;-70
2022/05/10 07:52:12;;;;;;;6.77;3.67;;;;;;;;;;5047857;28;20499;-70
2022/05/10 07:54:38;;;;;;;6.47;4.07;;;;;;;;;;5049308;28;20905;-70
2022/05/10 07:57:04;;;;;;;7.22;3.95;;;;;;;;;;5050153;28;20024;-71
2022/05/10 07:59:30;;;;;;;6.70;4.00;;;;;;;;;;5044289;28;20482;-70
2022/05/10 08:01:56;;;;;;;5.53;3.50;;;;;;;;;;5050066;28;20048;-70
2022/05/10 08:04:21;;;;;;;7.60;4.03;;;;;;;;;;5050040;28;20159;-70
2022/05/10 08:06:46;;;;;;;6.73;3.90;;;;;;;;;;5049878;28;20029;-70
2022/05/10 08:09:11;;;;;;;5.00;2.67;;;;;;;;;;5048238;28;20025;-70
2022/05/10 08:11:37;;;;;;;7.22;3.33;;;;;;;;;;5047127;28;20037;-70
2022/05/10 08:14:02;;;;;;;11.77;4.13;;;;;;;;;;5048243;28;20525;-70
2022/05/10 08:16:31;;;;;;;8.23;4.07;;;;;;;;;;5048208;28;20111;-70
2022/05/10 08:18:56;;;;;;;12.85;4.18;;;;;;;;;;5042121;28;20086;-70
2022/05/10 08:21:21;;;;;;;6.78;4.30;;;;;;;;;;5050006;28;20462;-70
2022/05/10 08:23:49;;;;;;;11.77;3.65;;;;;;;;;;5048910;28;20043;-70
2022/05/10 08:26:14;;;;;;;8.68;4.03;;;;;;;;;;5047662;28;20009;-70
2022/05/10 08:28:39;;;;;;;5.55;3.83;;;;;;;;;;5049301;28;20090;-70
2022/05/10 08:31:06;;;;;;;11.00;4.47;;;;;;;;;;5047320;28;20078;-70
2022/05/10 08:33:32;;;;;;;7.43;4.38;;;;;;;;;;5044027;28;20275;-70
2022/05/10 08:35:58;;;;;;;8.38;3.58;;;;;;;;;;5038175;28;20036;-70
2022/05/10 08:38:23;;;;;;;9.38;4.40;;;;;;;;;;5045292;28;20082;-70
2022/05/10 08:40:52;;;;;;;9.93;4.65;;;;;;;;;;5046434;28;20116;-70
2022/05/10 08:43:20;;;;;;;4.97;3.53;;;;;;;;;;5049131;28;20021;-70
2022/05/10 08:45:46;;;;;;;10.13;4.15;;;;;;;;;;5045367;28;20025;-70
2022/05/10 08:48:11;;;;;;;14.70;4.68;;;;;;;;;;5046364;28;20070;-70
2022/05/10 08:50:37;;;;;;;8.60;4.10;;;;;;;;;;5048174;28;20013;-70
2022/05/10 08:53:04;;;;;;;11.48;4.43;;;;;;;;;;5047097;28;20462;-70
2022/05/10 08:55:31;;;;;;;9.30;4.05;;;;;;;;;;5049049;28;20239;-70
2022/05/10 08:58:05;;;;;;;17.75;4.38;;;;;;;;;;5047072;28;20078;-70
2022/05/10 09:00:33;;;;;;;10.32;4.28;;;;;;;;;;5048687;28;20082;-70
2022/05/10 09:02:59;;;;;;;9.98;3.95;;;;;;;;;;5048801;28;20039;-70
2022/05/10 09:05:29;;;;;;;7.28;3.53;;;;;;;;;;5046805;28;20151;-70
2022/05/10 09:07:55;;;;;;;;;;;;;;;;;;5047753;28;20373;-70
2022/05/10 09:10:24;;;;;;;9.63;4.22;;;;;;;;;;5049901;28;19905;-70
2022/05/10 09:13:11;;;;;;;13.43;4.03;;;;;;;;;;5039154;28;20037;-70
2022/05/10 09:15:38;;;;;;;14.85;3.88;;;;;;;;;;5044164;28;20025;-71
2022/05/10 09:18:07;;;;;;;7.38;4.25;;;;;;;;;;5052759;28;20040;-70
2022/05/10 09:20:34;;;;;;;9.52;4.28;;;;;;;;;;5051001;28;20125;-70
2022/05/10 09:23:19;;;;;;;9.90;4.03;;;;;;;;;;5053366;28;20021;-70
2022/05/10 09:25:45;;;;;;;11.77;4.72;;;;;;;;;;5038858;28;20093;-70
2022/05/10 09:28:16;;;;;;;13.65;4.65;;;;;;;;;;5051806;28;20020;-70
2022/05/10 09:34:45;;;;;;;8.95;4.22;;;;;;;;;;5052607;28;20074;-70
2022/05/10 09:36:10;;;;;;;16.40;4.20;;;;;;;;;;5040217;28;20085;-71
2022/05/10 09:38:44;;;;;;;7.18;4.18;;;;;;;;;;5039492;28;20678;-69
2022/05/10 09:41:23;;;;;;;8.32;4.05;;;;;;;;;;5050450;28;20017;-70
2022/05/10 09:43:48;;;;;;;4.55;2.47;;;;;;;;;;5051087;28;20079;-69
2022/05/10 09:46:25;;;;;;;4.63;2.97;;;;;;;;;;5051891;28;20473;-70
2022/05/10 09:48:51;;;;;;;9.00;3.97;;;;;;;;;;5051758;28;20091;-69
2022/05/10 09:51:25;;;;;;;9.60;4.47;;;;;;;;;;5053097;28;20024;-69
2022/05/10 09:53:51;;;;;;;8.25;4.15;;;;;;;;;;5053256;28;20078;-72
2022/05/10 09:56:30;;;;;;;8.88;3.47;;;;;;;;;;5052185;28;20017;-69
2022/05/10 09:59:01;;;;;;;7.05;2.47;;;;;;;;;;5027887;28;20505;-69
2022/05/10 10:01:46;;;;;;;3.97;2.95;;;;;;;;;;5049990;28;20074;-71
2022/05/10 10:04:32;;;;;;;4.10;2.88;;;;;;;;;;5050574;28;20460;-69
2022/05/10 10:07:13;;;;;;;3.72;3.00;;;;;;;;;;5051122;28;20040;-69
2022/05/10 10:09:40;;;;;;;11.48;2.50;;;;;;;;;;5047903;28;20481;-69
2022/05/10 10:12:12;;;;;;;8.77;2.83;;;;;;;;;;5051501;28;20035;-70
2022/05/10 10:14:38;;;;;;;4.78;2.67;;;;;;;;;;5050407;28;20032;-69
2022/05/10 10:17:04;;;;;;;7.57;3.10;;;;;;;;;;5048910;28;20032;-71
2022/05/10 10:19:35;;;;;;;2.00;1.55;;;;;;;;;;5050544;28;20024;-70
2022/05/10 10:22:09;;;;;;;6.75;2.47;;;;;;;;;;5051944;28;20392;-70
2022/05/10 10:24:37;;;;;;;4.13;2.30;;;;;;;;;;5048340;28;20119;-71
2022/05/10 10:27:06;;;;;;;5.97;2.50;;;;;;;;;;5049109;28;20024;-71
2022/05/10 10:29:37;;;;;;;5.55;2.97;;;;;;;;;;5051063;28;20416;-69
2022/05/10 10:32:11;;;;;;;6.75;2.75;;;;;;;;;;5051213;28;20039;-69
2022/05/10 10:34:46;;;;;;;5.88;2.47;;;;;;;;;;5049634;28;20021;-69
2022/05/10 10:37:13;;;;;;;4.47;2.47;;;;;;;;;;5046233;28;20373;-73
2022/05/10 10:39:50;;;;;;;7.03;2.63;;;;;;;;;;5046267;28;21050;-69
2022/05/10 10:42:32;;;;;;;6.28;2.58;;;;;;;;;;5049519;28;20032;-71
2022/05/10 10:44:58;;;;;;;6.13;2.65;;;;;;;;;;5051844;28;20020;-69
2022/05/10 10:47:47;;;;;;;6.53;2.60;;;;;;;;;;5047807;28;20135;-74
2022/05/10 10:50:24;;;;;;;10.85;2.90;;;;;;;;;;5020985;28;20037;-71
2022/05/10 10:52:51;;;;;;;12.57;3.17;;;;;;;;;;5048656;28;20074;-70
2022/05/10 10:55:18;;;;;;;8.88;2.75;;;;;;;;;;5050154;28;20111;-71
2022/05/10 10:57:58;;;;;;;4.70;2.97;;;;;;;;;;5037235;28;20385;-69
2022/05/10 11:00:29;;;;;;;4.03;2.58;;;;;;;;;;5050112;28;20056;-69
2022/05/10 11:03:07;;;;;;;3.67;2.70;;;;;;;;;;5048287;28;20059;-69
2022/05/10 11:05:39;;;;;;;7.10;2.75;;;;;;;;;;5047868;28;20414;-69
2022/05/10 11:08:22;;;;;;;7.07;3.20;;;;;;;;;;5046446;28;20021;-69
2022/05/10 11:10:53;;;;;;;4.78;2.55;;;;;;;;;;5050340;28;20060;-70
2022/05/10 11:13:21;;;;;;;42.78;17.10;;;;;;;;;;5049445;28;20520;-70
2022/05/10 11:16:01;;;;;;;11.95;2.75;;;;;;;;;;5050048;28;20031;-70
2022/05/10 11:18:45;;;;;;;5.25;2.47;;;;;;;;;;5047877;28;20029;-69
2022/05/10 11:21:10;;;;;;;6.93;3.38;;;;;;;;;;5040066;28;20025;-70
2022/05/10 11:23:39;;;;;;;11.15;2.33;;;;;;;;;;5046573;28;20021;-69
2022/05/10 11:26:10;;;;;;;10.32;3.63;;;;;;;;;;5047513;28;20017;-70
2022/05/10 11:28:49;;;;;;;4.80;2.70;;;;;;;;;;5050635;28;20024;-70
2022/05/10 11:31:14;;;;;;;4.70;2.60;;;;;;;;;;5049028;28;20347;-69
2022/05/10 11:33:52;;;;;;;12.98;3.67;;;;;;;;;;5051332;28;20047;-70
2022/05/10 11:36:23;;;;;;;7.25;2.92;;;;;;;;;;5049231;28;20036;-70
2022/05/10 11:38:59;;;;;;;8.10;3.10;;;;;;;;;;5047287;28;20029;-70
2022/05/10 11:41:34;;;;;;;7.93;3.13;;;;;;;;;;5046085;28;20060;-70
2022/05/10 11:44:12;;;;;;;10.93;2.78;;;;;;;;;;5049002;28;20470;-71
2022/05/10 11:46:40;;;;;;;7.53;2.85;;;;;;;;;;5043255;28;20017;-71
2022/05/10 11:49:21;;;;;;;4.68;2.60;;;;;;;;;;5047448;28;20013;-71
2022/05/10 11:51:59;;;;;;;6.45;2.97;;;;;;;;;;5047531;28;20445;-71
2022/05/10 11:54:27;;;;;;;7.25;2.75;;;;;;;;;;5047210;28;20031;-70
2022/05/10 11:56:53;;;;;;;4.07;2.83;;;;;;;;;;5049266;28;20124;-71
2022/05/10 11:59:26;;;;;;;6.07;2.97;;;;;;;;;;5046103;28;20093;-71
2022/05/10 12:01:53;;;;;;;5.25;2.97;;;;;;;;;;5047978;28;20021;-71
2022/05/10 12:04:36;;;;;;;7.88;2.83;;;;;;;;;;5047934;28;20025;-71
2022/05/10 12:07:20;;;;;;;7.85;2.67;;;;;;;;;;5043423;28;20028;-71
2022/05/10 12:09:51;;;;;;;9.13;2.50;;;;;;;;;;5044161;28;20017;-71
2022/05/10 12:12:36;;;;;;;12.75;3.20;;;;;;;;;;5046094;28;20025;-70
2022/05/10 12:23:47;;;;;;;7.95;2.85;;;;;;;;;;5048316;28;20222;-70
2022/05/10 12:26:31;;;;;;;5.50;2.40;;;;;;;;;;5040514;28;20488;-70
2022/05/10 12:28:56;;;;;;;12.52;2.67;;;;;;;;;;5049026;28;20021;-69
2022/05/10 12:31:24;;;;;;;4.43;2.83;;;;;;;;;;5046180;28;20040;-70
2022/05/10 12:34:03;;;;;;;8.50;2.85;;;;;;;;;;5048748;28;20032;-69
2022/05/10 12:36:42;;;;;;;5.95;2.85;;;;;;;;;;5043034;28;20100;-68
2022/05/10 12:39:20;;;;;;;10.07;2.50;;;;;;;;;;5046079;28;20145;-71
2022/05/10 12:41:45;;;;;;;10.15;2.80;;;;;;;;;;5045341;28;20305;-69
2022/05/10 12:44:19;;;;;;;11.23;2.43;;;;;;;;;;5046061;28;20428;-69
2022/05/10 12:46:48;;;;;;;5.20;2.88;;;;;;;;;;5045769;28;20109;-71
2022/05/10 12:49:26;;;;;;;3.97;2.40;;;;;;;;;;5043784;28;20031;-71
2022/05/10 12:52:19;;;;;;;6.22;2.40;;;;;;;;;;5047192;28;20021;-69
2022/05/10 12:54:45;;;;;;;4.97;3.20;;;;;;;;;;5047736;28;20473;-69
2022/05/10 12:57:15;;;;;;;8.05;2.92;;;;;;;;;;5044037;28;20087;-70
2022/05/10 12:59:40;;;;;;;;;;;;;;;;;;5047330;28;20027;-71
2022/05/10 13:02:08;;;;;;;8.43;2.60;;;;;;;;;;5045947;28;20170;-69
2022/05/10 13:04:40;;;;;;;10.05;2.95;;;;;;;;;;5047402;28;20035;-69
2022/05/10 13:07:14;;;;;;;7.45;2.80;;;;;;;;;;5044106;28;20049;-70
2022/05/10 13:10:20;;;;;;;4.90;2.70;;;;;;;;;;5035620;28;20039;-70
2022/05/10 13:12:50;;;;;;;8.95;2.80;;;;;;;;;;4989112;28;20018;-69
2022/05/10 13:15:17;;;;;;;7.72;3.00;;;;;;;;;;4978496;28;20030;-69
2022/05/10 13:17:44;;;;;;;13.80;3.80;;;;;;;;;;5008723;28;20516;-69
2022/05/10 13:20:12;;;;;;;6.75;3.03;;;;;;;;;;5042736;28;20025;-72
2022/05/10 13:22:37;;;;;;;8.15;3.45;;;;;;;;;;5045788;28;20155;-71
2022/05/10 13:25:06;;;;;;;7.47;2.72;;;;;;;;;;5046371;28;20108;-69
2022/05/10 13:27:33;;;;;;;10.35;2.80;;;;;;;;;;5046306;28;20021;-69
2022/05/10 13:30:09;;;;;;;10.43;3.00;;;;;;;;;;5046331;28;20029;-69
2022/05/10 13:32:42;;;;;;;16.00;3.78;;;;;;;;;;5040737;28;20512;-69
2022/05/10 13:35:10;;;;;;;9.15;2.78;;;;;;;;;;5043993;28;20081;-68
2022/05/10 13:37:36;;;;;;;15.43;2.90;;;;;;;;;;5044190;28;20032;-70
2022/05/10 13:40:10;;;;;;;11.27;3.15;;;;;;;;;;5030377;28;20111;-70
2022/05/10 13:42:39;;;;;;;6.25;3.30;;;;;;;;;;5047156;28;20017;-72
2022/05/10 13:45:05;;;;;;;4.82;2.85;;;;;;;;;;5046206;28;20389;-70
2022/05/10 13:47:31;;;;;;;13.23;2.90;;;;;;;;;;5042972;28;20474;-72
2022/05/10 13:49:57;;;;;;;4.22;2.67;;;;;;;;;;5046149;28;20017;-70
2022/05/10 13:52:28;;;;;;;7.25;2.97;;;;;;;;;;5045700;28;20370;-70
2022/05/10 13:54:55;;;;;;;5.40;3.00;;;;;;;;;;5049126;28;20020;-70
2022/05/10 13:57:25;;;;;;;8.73;3.00;;;;;;;;;;5045857;28;20443;-71
2022/05/10 13:59:58;;;;;;;8.30;3.30;;;;;;;;;;5050660;28;20163;-71
2022/05/10 14:02:25;;;;;;;10.00;3.55;;;;;;;;;;5049146;28;20025;-69
2022/05/10 14:04:51;;;;;;;6.65;3.13;;;;;;;;;;5047762;28;20017;-74
2022/05/10 14:07:23;;;;;;;10.38;2.90;;;;;;;;;;5048492;28;20484;-72
2022/05/10 14:09:49;;;;;;;11.68;3.50;;;;;;;;;;5049668;28;20060;-69
2022/05/10 14:12:27;;;;;;;5.15;3.25;;;;;;;;;;5048154;28;20025;-70
2022/05/10 14:14:52;;;;;;;9.60;3.45;;;;;;;;;;5048631;28;20028;-73
2022/05/10 14:17:17;;;;;;;4.53;3.10;;;;;;;;;;5045877;28;20381;-71
2022/05/10 14:19:45;;;;;;;8.27;3.20;;;;;;;;;;5048884;28;20664;-71
2022/05/10 14:22:13;;;;;;;9.55;3.90;;;;;;;;;;5048515;28;20025;-69
2022/05/10 14:24:39;;;;;;;5.53;3.13;;;;;;;;;;5044381;28;20032;-70
2022/05/10 14:27:09;;;;;;;11.05;3.97;;;;;;;;;;5049330;28;20017;-69
2022/05/10 14:29:36;;;;;;;11.75;3.50;;;;;;;;;;5050709;28;20021;-69
2022/05/10 14:32:08;;;;;;;9.77;3.17;;;;;;;;;;5047246;28;20405;-70
2022/05/10 14:34:43;;;;;;;17.73;3.25;;;;;;;;;;5047470;28;20039;-70
2022/05/10 14:37:08;;;;;;;6.95;3.53;;;;;;;;;;5048853;28;20041;-69
2022/05/10 14:39:33;;;;;;;6.95;2.92;;;;;;;;;;5047780;28;20029;-73
2022/05/10 14:41:58;;;;;;;5.22;2.95;;;;;;;;;;5047502;28;20021;-71
2022/05/10 14:44:35;;;;;;;5.90;3.00;;;;;;;;;;5045373;28;20119;-69
2022/05/10 14:47:00;;;;;;;4.82;2.83;;;;;;;;;;5046613;28;20617;-72
2022/05/10 14:49:39;;;;;;;7.03;3.30;;;;;;;;;;5047175;28;20032;-70
2022/05/10 14:52:20;;;;;;;6.35;2.85;;;;;;;;;;5048177;28;20056;-69
2022/05/10 14:54:45;;;;;;;4.32;3.05;;;;;;;;;;5046201;28;20021;-71
2022/05/10 14:57:16;;;;;;;7.70;3.33;;;;;;;;;;5048458;28;20028;-71
2022/05/10 14:59:51;;;;;;;6.32;2.78;;;;;;;;;;5049945;28;20033;-69
2022/05/10 15:02:30;;;;;;;9.68;3.42;;;;;;;;;;5047250;28;20040;-70
2022/05/10 15:04:56;;;;;;;8.20;3.13;;;;;;;;;;5045676;28;20030;-72
2022/05/10 15:07:21;;;;;;;4.35;2.60;;;;;;;;;;5046529;28;20079;-69
2022/05/10 15:09:47;;;;;;;18.48;4.03;;;;;;;;;;5047288;28;20044;-70